71MI weather

Belleville (Johnston) Airport
Belleville, Michigan, United States

Public forecast

Using degrees Fahrenheit for public forecast. Weather courtesy of forecast.io.

METAR (pilot weather report)

Closest report is Willow Run Airport, 9.2 nm (17.1 km) N. Retrieved 2019/03/23 13:53 UTC (38 minutes ago):

KYIP 231353Z 31007KT 10SM CLR 00/M08 A3029 RMK AO2 SLP263 T00001078

TAF (pilot weather forecast)

Closest forecast is Willow Run Airport, 9.2 nm (17.1 km) N. Retrieved 2019/03/23 12:24 UTC (2 hours ago):

TAF KYIP 231123Z 2312/2412 30006KT P6SM SKC FM231600 27008KT P6SM SKC FM232200 22005KT P6SM SKC